createdAt,value
2019-01-27T00:00:44.858Z,992.48
2019-01-27T00:01:44.872Z,992.44
2019-01-27T00:02:44.887Z,992.36
2019-01-27T00:03:44.900Z,992.38
2019-01-27T00:04:44.915Z,992.36
2019-01-27T00:05:44.932Z,992.37
2019-01-27T00:06:44.943Z,992.36
2019-01-27T00:07:44.961Z,992.38
2019-01-27T00:08:44.971Z,992.37
2019-01-27T00:09:44.986Z,992.37
2019-01-27T00:10:44.999Z,992.35
2019-01-27T00:11:45.013Z,992.36
2019-01-27T00:12:45.027Z,992.34
2019-01-27T00:13:45.040Z,992.31
2019-01-27T00:14:45.054Z,992.35
2019-01-27T00:15:45.069Z,992.32
2019-01-27T00:16:45.083Z,992.33
2019-01-27T00:17:45.096Z,992.29
2019-01-27T00:18:45.114Z,992.29
2019-01-27T00:19:45.126Z,992.24
2019-01-27T00:20:45.140Z,992.22
2019-01-27T00:21:45.153Z,992.26
2019-01-27T00:22:45.168Z,992.25
2019-01-27T00:23:45.182Z,992.28
2019-01-27T00:24:45.195Z,992.3
2019-01-27T00:26:45.224Z,992.24
2019-01-27T00:27:45.237Z,992.25
2019-01-27T00:28:45.252Z,992.18
2019-01-27T00:29:45.265Z,992.23
2019-01-27T00:30:45.280Z,992.19
2019-01-27T00:31:45.294Z,992.19
2019-01-27T00:32:45.309Z,992.24
2019-01-27T00:33:45.322Z,992.16
2019-01-27T00:34:45.336Z,992.16
2019-01-27T00:35:45.349Z,992.13
2019-01-27T00:36:45.364Z,992.11
2019-01-27T00:37:45.428Z,992.15
2019-01-27T00:38:45.392Z,992.14
2019-01-27T00:39:45.411Z,992.14
2019-01-27T00:40:45.420Z,992.11
2019-01-27T00:42:45.448Z,992.06
2019-01-27T00:43:45.512Z,992.1
2019-01-27T00:44:45.476Z,992.02
2019-01-27T00:45:45.542Z,992.02
2019-01-27T00:46:45.504Z,992.05
2019-01-27T00:47:45.518Z,992
2019-01-27T00:48:45.535Z,992.01
2019-01-27T00:49:45.547Z,991.99
2019-01-27T00:50:45.560Z,991.97
2019-01-27T00:51:45.575Z,991.99
2019-01-27T00:52:45.590Z,991.96
2019-01-27T00:53:45.603Z,991.99
2019-01-27T00:54:45.617Z,991.96
2019-01-27T00:55:45.631Z,991.98
2019-01-27T00:56:45.645Z,991.93
2019-01-27T00:58:45.673Z,991.94
2019-01-27T00:59:45.687Z,991.9
2019-01-27T01:00:45.702Z,991.9
2019-01-27T01:01:45.715Z,991.9
2019-01-27T01:02:45.730Z,991.88
2019-01-27T01:03:45.745Z,991.87
2019-01-27T01:04:45.759Z,991.9
2019-01-27T01:05:45.771Z,991.87
2019-01-27T01:06:45.786Z,991.94
2019-01-27T01:07:45.801Z,991.89
2019-01-27T01:08:45.813Z,991.91
2019-01-27T01:09:45.828Z,991.89
2019-01-27T01:10:45.842Z,991.87
2019-01-27T01:11:45.857Z,991.87
2019-01-27T01:12:45.871Z,991.81
2019-01-27T01:14:45.899Z,991.81
2019-01-27T01:15:45.913Z,991.78
2019-01-27T01:16:45.927Z,991.72
2019-01-27T01:17:45.941Z,991.73
2019-01-27T01:18:45.956Z,991.7
2019-01-27T01:19:45.969Z,991.66
2019-01-27T01:20:45.984Z,991.68
2019-01-27T01:21:45.998Z,991.65
2019-01-27T01:22:46.012Z,991.63
2019-01-27T01:23:46.026Z,991.66
2019-01-27T01:24:46.040Z,991.6
2019-01-27T01:25:46.054Z,991.63
2019-01-27T01:26:46.069Z,991.6
2019-01-27T01:27:46.084Z,991.52
2019-01-27T01:29:46.115Z,991.52
2019-01-27T01:30:46.128Z,991.53
2019-01-27T01:31:46.141Z,991.51
2019-01-27T01:32:46.205Z,991.52
2019-01-27T01:33:46.169Z,991.5
2019-01-27T01:34:46.182Z,991.52
2019-01-27T01:35:46.197Z,991.46
2019-01-27T01:36:46.212Z,991.43
2019-01-27T01:37:46.226Z,991.46
2019-01-27T01:38:46.239Z,991.39
2019-01-27T01:39:46.253Z,991.38
2019-01-27T01:40:46.268Z,991.37
2019-01-27T01:41:46.281Z,991.39
2019-01-27T01:42:46.295Z,991.38
2019-01-27T01:43:46.310Z,991.3
2019-01-27T01:44:46.324Z,991.29
2019-01-27T01:45:46.337Z,991.27
2019-01-27T01:46:46.352Z,991.28
2019-01-27T01:47:46.367Z,991.21
2019-01-27T01:48:46.380Z,991.18
2019-01-27T01:49:46.394Z,991.12
2019-01-27T01:50:46.412Z,991.11
2019-01-27T01:51:46.424Z,991.04
2019-01-27T01:52:46.436Z,991
2019-01-27T01:53:46.451Z,990.95
2019-01-27T01:54:46.465Z,990.98
2019-01-27T01:55:46.479Z,990.93
2019-01-27T01:56:46.495Z,990.94
2019-01-27T01:57:46.507Z,990.96
2019-01-27T01:58:46.522Z,990.93
2019-01-27T01:59:46.538Z,990.91
2019-01-27T02:01:46.566Z,990.85
2019-01-27T02:02:46.578Z,990.85
2019-01-27T02:03:46.591Z,990.81
2019-01-27T02:04:46.605Z,990.76
2019-01-27T02:05:46.621Z,990.81
2019-01-27T02:06:46.634Z,990.74
2019-01-27T02:07:46.647Z,990.73
2019-01-27T02:08:46.661Z,990.75
2019-01-27T02:09:46.676Z,990.68
2019-01-27T02:10:46.690Z,990.68
2019-01-27T02:11:46.705Z,990.65
2019-01-27T02:12:46.717Z,990.67
2019-01-27T02:13:46.731Z,990.61
2019-01-27T02:14:46.745Z,990.63
2019-01-27T02:15:46.760Z,990.57
2019-01-27T02:17:46.788Z,990.53
2019-01-27T02:18:46.804Z,990.51
2019-01-27T02:19:46.816Z,990.54
2019-01-27T02:20:46.830Z,990.51
2019-01-27T02:21:46.843Z,990.46
2019-01-27T02:22:46.858Z,990.48
2019-01-27T02:23:46.873Z,990.42
2019-01-27T02:24:46.889Z,990.41
2019-01-27T02:25:46.900Z,990.42
2019-01-27T02:26:46.914Z,990.4
2019-01-27T02:27:46.928Z,990.36
2019-01-27T02:28:46.943Z,990.37
2019-01-27T02:29:46.956Z,990.37
2019-01-27T02:30:46.971Z,990.35
2019-01-27T02:31:46.984Z,990.34
2019-01-27T02:33:47.012Z,990.29
2019-01-27T02:34:47.026Z,990.28
2019-01-27T02:35:47.040Z,990.27
2019-01-27T02:36:47.054Z,990.29
2019-01-27T02:37:47.069Z,990.27
2019-01-27T02:38:47.084Z,990.25
2019-01-27T02:39:47.097Z,990.2
2019-01-27T02:40:47.110Z,990.18
2019-01-27T02:41:47.125Z,990.17
2019-01-27T02:42:47.139Z,990.13
2019-01-27T02:43:47.153Z,990.12
2019-01-27T02:44:47.167Z,990.08
2019-01-27T02:45:47.182Z,990.06
2019-01-27T02:46:47.195Z,990.01
2019-01-27T02:47:47.209Z,989.99
2019-01-27T02:49:47.237Z,989.92
2019-01-27T02:50:47.251Z,989.88
2019-01-27T02:51:47.264Z,989.91
2019-01-27T02:52:47.279Z,989.82
2019-01-27T02:53:47.393Z,989.84
2019-01-27T02:54:47.306Z,989.84
2019-01-27T02:55:47.371Z,989.78
2019-01-27T02:56:47.335Z,989.77
2019-01-27T02:57:47.350Z,989.7
2019-01-27T02:58:47.363Z,989.71
2019-01-27T02:59:47.376Z,989.71
2019-01-27T03:00:47.393Z,989.73
2019-01-27T03:01:47.406Z,989.73
2019-01-27T03:02:47.420Z,989.7
2019-01-27T03:04:47.449Z,989.62
2019-01-27T03:05:47.469Z,989.65
2019-01-27T03:06:47.477Z,989.64
2019-01-27T03:07:47.490Z,989.59
2019-01-27T03:08:47.506Z,989.58
2019-01-27T03:09:47.518Z,989.5
2019-01-27T03:10:47.532Z,989.5
2019-01-27T03:11:47.561Z,989.47
2019-01-27T03:12:47.559Z,989.49
2019-01-27T03:13:47.574Z,989.43
2019-01-27T03:14:47.588Z,989.4
2019-01-27T03:15:47.653Z,989.4
2019-01-27T03:16:47.615Z,989.38
2019-01-27T03:17:47.630Z,989.38
2019-01-27T03:18:47.644Z,989.36
2019-01-27T03:19:47.659Z,989.35
2019-01-27T03:20:47.672Z,989.41
2019-01-27T03:21:47.686Z,989.31
2019-01-27T03:22:47.700Z,989.34
2019-01-27T03:23:47.716Z,989.33
2019-01-27T03:24:47.727Z,989.29
2019-01-27T03:25:47.742Z,989.32
2019-01-27T03:26:47.757Z,989.32
2019-01-27T03:27:47.776Z,989.3
2019-01-27T03:28:47.784Z,989.31
2019-01-27T03:29:47.798Z,989.27
2019-01-27T03:30:47.818Z,989.28
2019-01-27T03:31:47.827Z,989.27
2019-01-27T03:32:47.855Z,989.27
2019-01-27T03:33:47.855Z,989.24
2019-01-27T03:34:47.868Z,989.25
2019-01-27T03:36:47.896Z,989.22
2019-01-27T03:37:47.912Z,989.2
2019-01-27T03:38:47.979Z,989.22
2019-01-27T03:39:47.938Z,989.18
2019-01-27T03:40:47.952Z,989.17
2019-01-27T03:41:47.966Z,989.15
2019-01-27T03:42:47.979Z,989.11
2019-01-27T03:43:47.993Z,989.11
2019-01-27T03:44:48.008Z,989.1
2019-01-27T03:45:48.023Z,989.1
2019-01-27T03:46:48.051Z,989.06
2019-01-27T03:47:48.051Z,989.03
2019-01-27T03:48:48.063Z,989.05
2019-01-27T03:49:48.077Z,989
2019-01-27T03:50:48.091Z,989.04
2019-01-27T03:52:48.120Z,989.02
2019-01-27T03:53:48.133Z,989.01
2019-01-27T03:54:48.148Z,988.96
2019-01-27T03:55:48.162Z,988.96
2019-01-27T03:56:48.174Z,988.95
2019-01-27T03:57:48.189Z,988.89
2019-01-27T03:58:48.203Z,988.92
2019-01-27T03:59:48.217Z,988.85
2019-01-27T04:00:48.230Z,988.89
2019-01-27T04:01:48.246Z,988.86
2019-01-27T04:02:48.259Z,988.89
2019-01-27T04:03:48.274Z,988.82
2019-01-27T04:04:48.286Z,988.83
2019-01-27T04:05:48.301Z,988.75
2019-01-27T04:06:48.316Z,988.79
2019-01-27T04:08:48.343Z,988.7
2019-01-27T04:09:48.357Z,988.65
2019-01-27T04:10:48.372Z,988.59
2019-01-27T04:11:48.385Z,988.61
2019-01-27T04:12:48.398Z,988.58
2019-01-27T04:13:48.413Z,988.56
2019-01-27T04:14:48.426Z,988.56
2019-01-27T04:15:48.440Z,988.55
2019-01-27T04:16:48.455Z,988.51
2019-01-27T04:17:48.469Z,988.48
2019-01-27T04:18:48.482Z,988.47
2019-01-27T04:19:48.497Z,988.48
2019-01-27T04:20:48.510Z,988.46
2019-01-27T04:21:48.525Z,988.42
2019-01-27T04:22:48.566Z,988.38
2019-01-27T04:24:48.568Z,988.36
2019-01-27T04:25:48.579Z,988.38
2019-01-27T04:26:48.593Z,988.36
2019-01-27T04:27:48.606Z,988.34
2019-01-27T04:28:48.634Z,988.33
2019-01-27T04:29:48.634Z,988.25
2019-01-27T04:30:48.648Z,988.25
2019-01-27T04:31:48.664Z,988.26
2019-01-27T04:32:48.676Z,988.26
2019-01-27T04:33:48.690Z,988.29
2019-01-27T04:34:48.705Z,988.26
2019-01-27T04:35:48.718Z,988.28
2019-01-27T04:36:48.732Z,988.27
2019-01-27T04:37:48.746Z,988.25
2019-01-27T04:39:48.776Z,988.24
2019-01-27T04:40:48.787Z,988.22
2019-01-27T04:41:48.801Z,988.19
2019-01-27T04:42:48.819Z,988.18
2019-01-27T04:43:48.830Z,988.1
2019-01-27T04:44:48.843Z,988.08
2019-01-27T04:45:48.858Z,988.1
2019-01-27T04:46:48.871Z,988.11
2019-01-27T04:47:48.884Z,988.08
2019-01-27T04:48:48.898Z,988.06
2019-01-27T04:49:48.912Z,988.07
2019-01-27T04:50:48.935Z,988.02
2019-01-27T04:51:48.943Z,988.04
2019-01-27T04:52:48.953Z,988.03
2019-01-27T04:53:48.967Z,987.99
2019-01-27T04:54:48.983Z,988.03
2019-01-27T04:55:48.994Z,987.97
2019-01-27T04:56:49.034Z,987.97
2019-01-27T04:57:49.024Z,987.94
2019-01-27T04:58:49.036Z,987.94
2019-01-27T04:59:49.050Z,987.96
2019-01-27T05:00:49.070Z,987.89
2019-01-27T05:01:49.081Z,987.92
2019-01-27T05:02:49.091Z,987.88
2019-01-27T05:03:49.109Z,987.88
2019-01-27T05:04:49.119Z,987.86
2019-01-27T05:05:49.138Z,987.86
2019-01-27T05:06:49.147Z,987.87
2019-01-27T05:07:49.163Z,987.87
2019-01-27T05:08:49.175Z,987.82
2019-01-27T05:09:49.189Z,987.82
2019-01-27T05:11:49.216Z,987.86
2019-01-27T05:12:49.280Z,987.84
2019-01-27T05:13:49.244Z,987.85
2019-01-27T05:14:49.257Z,987.79
2019-01-27T05:15:49.272Z,987.82
2019-01-27T05:16:49.291Z,987.76
2019-01-27T05:17:49.299Z,987.7
2019-01-27T05:18:49.314Z,987.67
2019-01-27T05:19:49.327Z,987.65
2019-01-27T05:20:49.340Z,987.63
2019-01-27T05:21:49.355Z,987.61
2019-01-27T05:22:49.369Z,987.6
2019-01-27T05:23:49.382Z,987.57
2019-01-27T05:24:49.396Z,987.57
2019-01-27T05:25:49.412Z,987.55
2019-01-27T05:27:49.439Z,987.56
2019-01-27T05:28:49.451Z,987.54
2019-01-27T05:29:49.465Z,987.51
2019-01-27T05:30:49.479Z,987.48
2019-01-27T05:31:49.493Z,987.49
2019-01-27T05:32:49.507Z,987.43
2019-01-27T05:33:49.521Z,987.49
2019-01-27T05:34:49.535Z,987.44
2019-01-27T05:35:49.548Z,987.46
2019-01-27T05:36:49.562Z,987.47
2019-01-27T05:37:49.576Z,987.42
2019-01-27T05:38:49.591Z,987.45
2019-01-27T05:39:49.604Z,987.42
2019-01-27T05:40:49.618Z,987.42
2019-01-27T05:41:49.632Z,987.42
2019-01-27T05:43:49.659Z,987.36
2019-01-27T05:44:49.674Z,987.29
2019-01-27T05:45:49.690Z,987.26
2019-01-27T05:46:49.700Z,987.27
2019-01-27T05:47:49.715Z,987.22
2019-01-27T05:48:49.730Z,987.24
2019-01-27T05:49:49.794Z,987.23
2019-01-27T05:50:49.759Z,987.26
2019-01-27T05:51:49.770Z,987.22
2019-01-27T05:52:49.785Z,987.2
2019-01-27T05:53:49.798Z,987.21
2019-01-27T05:54:49.813Z,987.17
2019-01-27T05:55:49.826Z,987.2
2019-01-27T05:56:56.423Z,987.24
2019-01-27T05:57:49.855Z,987.23
2019-01-27T05:59:49.882Z,987.2
2019-01-27T06:00:49.896Z,987.2
2019-01-27T06:01:49.910Z,987.18
2019-01-27T06:02:49.923Z,987.09
2019-01-27T06:03:49.938Z,987.08
2019-01-27T06:04:49.951Z,987.08
2019-01-27T06:05:49.965Z,987.07
2019-01-27T06:06:49.979Z,987.08
2019-01-27T06:07:49.994Z,987.1
2019-01-27T06:08:50.017Z,987.07
2019-01-27T06:09:50.021Z,987.04
2019-01-27T06:10:50.034Z,987.02
2019-01-27T06:11:50.049Z,987.03
2019-01-27T06:12:50.069Z,987.01
2019-01-27T06:14:50.092Z,987
2019-01-27T06:15:50.104Z,986.98
2019-01-27T06:16:50.170Z,986.94
2019-01-27T06:17:50.145Z,986.94
2019-01-27T06:18:50.147Z,986.9
2019-01-27T06:19:50.164Z,986.89
2019-01-27T06:20:50.174Z,986.85
2019-01-27T06:21:50.190Z,986.82
2019-01-27T06:22:50.201Z,986.83
2019-01-27T06:23:50.217Z,986.78
2019-01-27T06:24:50.232Z,986.8
2019-01-27T06:25:50.245Z,986.78
2019-01-27T06:26:50.259Z,986.72
2019-01-27T06:27:50.271Z,986.71
2019-01-27T06:28:50.289Z,986.67
2019-01-27T06:29:50.300Z,986.7
2019-01-27T06:30:50.312Z,986.69
2019-01-27T06:31:50.327Z,986.7
2019-01-27T06:32:50.342Z,986.65
2019-01-27T06:33:50.354Z,986.66
2019-01-27T06:34:50.368Z,986.62
2019-01-27T06:35:50.382Z,986.62
2019-01-27T06:36:50.396Z,986.62
2019-01-27T06:37:50.410Z,986.62
2019-01-27T06:38:50.424Z,986.58
2019-01-27T06:39:50.438Z,986.65
2019-01-27T06:40:50.452Z,986.66
2019-01-27T06:41:50.465Z,986.66
2019-01-27T06:42:50.479Z,986.65
2019-01-27T06:43:50.494Z,986.65
2019-01-27T06:44:50.507Z,986.63
2019-01-27T06:46:50.535Z,986.56
2019-01-27T06:47:50.649Z,986.55
2019-01-27T06:48:50.562Z,986.52
2019-01-27T06:49:50.578Z,986.51
2019-01-27T06:50:50.591Z,986.56
2019-01-27T06:51:50.605Z,986.55
2019-01-27T06:52:50.619Z,986.53
2019-01-27T06:53:50.633Z,986.55
2019-01-27T06:54:50.648Z,986.51
2019-01-27T06:55:50.660Z,986.51
2019-01-27T06:56:50.776Z,986.5
2019-01-27T06:57:50.688Z,986.48
2019-01-27T06:58:50.702Z,986.5
2019-01-27T06:59:50.715Z,986.51
2019-01-27T07:00:50.730Z,986.46
2019-01-27T07:02:50.758Z,986.44
2019-01-27T07:03:50.772Z,986.41
2019-01-27T07:04:50.786Z,986.44
2019-01-27T07:05:50.850Z,986.42
2019-01-27T07:06:50.812Z,986.45
2019-01-27T07:07:50.828Z,986.47
2019-01-27T07:08:50.844Z,986.46
2019-01-27T07:09:50.855Z,986.44
2019-01-27T07:10:50.869Z,986.44
2019-01-27T07:11:50.883Z,986.37
2019-01-27T07:12:50.897Z,986.41
2019-01-27T07:13:50.911Z,986.38
2019-01-27T07:14:50.924Z,986.32
2019-01-27T07:15:50.938Z,986.36
2019-01-27T07:16:50.952Z,986.32
2019-01-27T07:18:50.979Z,986.35
2019-01-27T07:19:50.994Z,986.31
2019-01-27T07:20:51.008Z,986.32
2019-01-27T07:21:51.021Z,986.3
2019-01-27T07:22:51.035Z,986.27
2019-01-27T07:23:51.049Z,986.28
2019-01-27T07:24:51.065Z,986.27
2019-01-27T07:25:51.077Z,986.29
2019-01-27T07:26:51.091Z,986.26
2019-01-27T07:27:51.105Z,986.26
2019-01-27T07:28:51.118Z,986.26
2019-01-27T07:29:51.138Z,986.22
2019-01-27T07:30:51.146Z,986.18
2019-01-27T07:31:51.161Z,986.23
2019-01-27T07:32:51.178Z,986.23
2019-01-27T07:34:51.202Z,986.27
2019-01-27T07:35:51.217Z,986.21
2019-01-27T07:36:51.230Z,986.2
2019-01-27T07:37:51.244Z,986.2
2019-01-27T07:38:51.261Z,986.16
2019-01-27T07:39:51.280Z,986.13
2019-01-27T07:40:51.285Z,986.11
2019-01-27T07:41:51.300Z,986.11
2019-01-27T07:42:51.314Z,986.05
2019-01-27T07:43:51.328Z,986.08
2019-01-27T07:44:51.342Z,986.07
2019-01-27T07:45:51.356Z,986.03
2019-01-27T07:46:51.370Z,986.05
2019-01-27T07:47:51.389Z,986.02
2019-01-27T07:49:51.413Z,986.05
2019-01-27T07:50:51.426Z,985.96
2019-01-27T07:51:51.440Z,985.95
2019-01-27T07:52:51.455Z,985.98
2019-01-27T07:53:51.469Z,986
2019-01-27T07:54:51.482Z,986.03
2019-01-27T07:55:51.498Z,985.97
2019-01-27T07:56:51.510Z,985.96
2019-01-27T07:57:51.523Z,985.92
2019-01-27T07:58:51.538Z,985.89
2019-01-27T07:59:51.557Z,985.84
2019-01-27T08:00:51.566Z,985.85
2019-01-27T08:01:51.580Z,985.8
2019-01-27T08:02:51.593Z,985.82
2019-01-27T08:03:51.608Z,985.83
2019-01-27T08:04:51.626Z,985.8
2019-01-27T08:05:51.636Z,985.78
2019-01-27T08:06:51.650Z,985.73
2019-01-27T08:07:51.664Z,985.78
2019-01-27T08:08:51.682Z,985.77
2019-01-27T08:09:51.793Z,985.75
2019-01-27T08:10:51.706Z,985.75
2019-01-27T08:11:51.720Z,985.73
2019-01-27T08:12:51.733Z,985.74
2019-01-27T08:13:51.747Z,985.8
2019-01-27T08:14:51.762Z,985.78
2019-01-27T08:15:51.777Z,985.78
2019-01-27T08:16:51.790Z,985.77
2019-01-27T08:17:51.804Z,985.77
2019-01-27T08:18:51.821Z,985.7
2019-01-27T08:19:51.832Z,985.65
2019-01-27T08:21:51.860Z,985.66
2019-01-27T08:22:51.875Z,985.68
2019-01-27T08:23:51.888Z,985.65
2019-01-27T08:24:51.902Z,985.68
2019-01-27T08:25:51.967Z,985.68
2019-01-27T08:26:51.931Z,985.68
2019-01-27T08:27:51.945Z,985.67
2019-01-27T08:28:51.959Z,985.64
2019-01-27T08:29:51.973Z,985.65
2019-01-27T08:30:51.986Z,985.61
2019-01-27T08:31:52.003Z,985.61
2019-01-27T08:32:52.021Z,985.6
2019-01-27T08:33:52.030Z,985.6
2019-01-27T08:34:52.042Z,985.6
2019-01-27T08:35:52.057Z,985.59
2019-01-27T08:37:52.086Z,985.56
2019-01-27T08:38:52.099Z,985.58
2019-01-27T08:39:52.113Z,985.59
2019-01-27T08:40:52.128Z,985.53
2019-01-27T08:41:52.141Z,985.54
2019-01-27T08:42:52.155Z,985.57
2019-01-27T08:43:52.170Z,985.54
2019-01-27T08:44:52.184Z,985.54
2019-01-27T08:45:52.198Z,985.5
2019-01-27T08:46:52.212Z,985.51
2019-01-27T08:47:52.277Z,985.49
2019-01-27T08:48:52.241Z,985.49
2019-01-27T08:49:52.254Z,985.47
2019-01-27T08:50:52.269Z,985.48
2019-01-27T08:51:52.284Z,985.49
2019-01-27T08:53:52.311Z,985.51
2019-01-27T08:54:52.332Z,985.44
2019-01-27T08:55:52.341Z,985.48
2019-01-27T08:56:52.355Z,985.44
2019-01-27T08:57:52.369Z,985.44
2019-01-27T08:58:52.384Z,985.42
2019-01-27T08:59:52.398Z,985.42
2019-01-27T09:00:52.412Z,985.47
2019-01-27T09:01:52.427Z,985.46
2019-01-27T09:02:52.441Z,985.45
2019-01-27T09:03:52.458Z,985.43
2019-01-27T09:04:52.470Z,985.43
2019-01-27T09:05:52.485Z,985.37
2019-01-27T09:06:52.500Z,985.33
2019-01-27T09:07:52.513Z,985.35
2019-01-27T09:09:52.543Z,985.33
2019-01-27T09:10:52.608Z,985.3
2019-01-27T09:11:52.572Z,985.32
2019-01-27T09:12:52.586Z,985.35
2019-01-27T09:13:52.605Z,985.29
2019-01-27T09:14:52.616Z,985.28
2019-01-27T09:15:52.630Z,985.3
2019-01-27T09:16:52.695Z,985.33
2019-01-27T09:17:52.659Z,985.31
2019-01-27T09:18:52.673Z,985.32
2019-01-27T09:19:52.687Z,985.32
2019-01-27T09:20:52.703Z,985.29
2019-01-27T09:21:52.717Z,985.27
2019-01-27T09:22:52.732Z,985.26
2019-01-27T09:24:52.762Z,985.24
2019-01-27T09:25:52.775Z,985.18
2019-01-27T09:26:52.790Z,985.21
2019-01-27T09:27:52.805Z,985.17
2019-01-27T09:28:52.821Z,985.19
2019-01-27T09:29:52.835Z,985.19
2019-01-27T09:30:52.849Z,985.21
2019-01-27T09:31:52.864Z,985.19
2019-01-27T09:32:53.043Z,985.2
2019-01-27T09:33:52.943Z,985.18
2019-01-27T09:34:52.908Z,985.15
2019-01-27T09:35:52.924Z,985.1
2019-01-27T09:36:52.938Z,985.17
2019-01-27T09:37:52.953Z,985.11
2019-01-27T09:38:52.968Z,985.16
2019-01-27T09:39:52.984Z,985.1
2019-01-27T09:40:52.998Z,985.12
2019-01-27T09:41:53.014Z,985.13
2019-01-27T09:42:53.030Z,985.13
2019-01-27T09:43:53.046Z,985.09
2019-01-27T09:44:53.060Z,985.07
2019-01-27T09:46:04.990Z,985.1
2019-01-27T09:46:53.092Z,985.04
2019-01-27T09:47:53.108Z,985.05
2019-01-27T09:48:53.122Z,985.03
2019-01-27T09:49:53.138Z,985.04
2019-01-27T09:50:53.154Z,985
2019-01-27T09:51:53.169Z,984.92
2019-01-27T09:52:53.185Z,984.99
2019-01-27T09:53:53.201Z,984.91
2019-01-27T09:54:53.216Z,984.93
2019-01-27T09:56:53.250Z,984.92
2019-01-27T09:57:53.264Z,984.91
2019-01-27T09:58:53.278Z,984.96
2019-01-27T09:59:53.294Z,984.97
2019-01-27T10:00:53.310Z,984.89
2019-01-27T10:01:53.326Z,984.89
2019-01-27T10:02:53.342Z,984.86
2019-01-27T10:03:53.359Z,984.86
2019-01-27T10:04:53.374Z,984.83
2019-01-27T10:05:53.388Z,984.89
2019-01-27T10:06:53.404Z,984.79
2019-01-27T10:07:53.420Z,984.78
2019-01-27T10:08:53.436Z,984.85
2019-01-27T10:09:53.501Z,984.82
2019-01-27T10:10:53.469Z,984.81
2019-01-27T10:12:53.501Z,984.77
2019-01-27T10:13:53.514Z,984.75
2019-01-27T10:14:53.529Z,984.76
2019-01-27T10:15:53.546Z,984.72
2019-01-27T10:16:53.560Z,984.72
2019-01-27T10:17:53.576Z,984.67
2019-01-27T10:18:53.592Z,984.7
2019-01-27T10:19:53.608Z,984.68
2019-01-27T10:20:53.623Z,984.63
2019-01-27T10:21:53.639Z,984.68
2019-01-27T10:22:53.654Z,984.67
2019-01-27T10:23:53.745Z,984.71
2019-01-27T10:24:53.685Z,984.65
2019-01-27T10:25:53.701Z,984.66
2019-01-27T10:26:53.717Z,984.65
2019-01-27T10:28:53.748Z,984.62
2019-01-27T10:29:53.764Z,984.6
2019-01-27T10:30:53.779Z,984.56
2019-01-27T10:31:53.794Z,984.58
2019-01-27T10:32:53.810Z,984.53
2019-01-27T10:33:53.826Z,984.56
2019-01-27T10:34:53.842Z,984.5
2019-01-27T10:35:53.857Z,984.48
2019-01-27T10:36:53.873Z,984.53
2019-01-27T10:37:53.888Z,984.47
2019-01-27T10:38:53.904Z,984.46
2019-01-27T10:39:53.920Z,984.47
2019-01-27T10:40:54.041Z,984.42
2019-01-27T10:41:53.952Z,984.48
2019-01-27T10:42:53.968Z,984.46
2019-01-27T10:44:54.000Z,984.45
2019-01-27T10:45:54.015Z,984.43
2019-01-27T10:46:54.030Z,984.46
2019-01-27T10:47:54.046Z,984.46
2019-01-27T10:48:54.063Z,984.44
2019-01-27T10:49:54.077Z,984.37
2019-01-27T10:50:54.094Z,984.37
2019-01-27T10:51:54.109Z,984.36
2019-01-27T10:52:54.126Z,984.38
2019-01-27T10:53:54.141Z,984.41
2019-01-27T10:54:54.157Z,984.35
2019-01-27T10:55:54.174Z,984.34
2019-01-27T10:56:54.188Z,984.32
2019-01-27T10:57:54.205Z,984.33
2019-01-27T10:59:54.238Z,984.28
2019-01-27T11:00:54.252Z,984.27
2019-01-27T11:01:54.268Z,984.21
2019-01-27T11:02:54.284Z,984.19
2019-01-27T11:03:54.300Z,984.18
2019-01-27T11:04:54.315Z,984.17
2019-01-27T11:05:54.331Z,984.15
2019-01-27T11:06:54.348Z,984.12
2019-01-27T11:07:54.382Z,984.14
2019-01-27T11:08:54.379Z,984.09
2019-01-27T11:09:54.395Z,984.03
2019-01-27T11:10:54.412Z,984.06
2019-01-27T11:11:54.426Z,984.02
2019-01-27T11:12:54.442Z,984.03
2019-01-27T11:13:54.458Z,983.99
2019-01-27T11:14:54.474Z,983.99
2019-01-27T11:15:54.562Z,984
2019-01-27T11:16:54.505Z,984.04
2019-01-27T11:17:54.521Z,984.02
2019-01-27T11:18:54.537Z,984.01
2019-01-27T11:19:54.552Z,984.04
2019-01-27T11:20:54.568Z,983.99
2019-01-27T11:21:54.584Z,983.97
2019-01-27T11:22:54.599Z,983.97
2019-01-27T11:23:54.615Z,983.96
2019-01-27T11:24:54.631Z,983.95
2019-01-27T11:25:59.706Z,983.94
2019-01-27T11:26:54.662Z,983.94
2019-01-27T11:27:54.678Z,983.96
2019-01-27T11:28:54.694Z,983.9
2019-01-27T11:29:54.708Z,983.89
2019-01-27T11:31:54.742Z,983.82
2019-01-27T11:32:54.757Z,983.81
2019-01-27T11:33:54.782Z,983.83
2019-01-27T11:34:54.787Z,983.8
2019-01-27T11:35:54.803Z,983.79
2019-01-27T11:36:54.820Z,983.79
2019-01-27T11:37:54.834Z,983.75
2019-01-27T11:38:54.850Z,983.72
2019-01-27T11:39:54.866Z,983.68
2019-01-27T11:40:54.881Z,983.68
2019-01-27T11:41:54.899Z,983.69
2019-01-27T11:42:54.964Z,983.7
2019-01-27T11:43:54.929Z,983.69
2019-01-27T11:44:54.944Z,983.65
2019-01-27T11:45:54.960Z,983.63
2019-01-27T11:47:54.992Z,983.5
2019-01-27T11:48:55.008Z,983.53
2019-01-27T11:49:55.023Z,983.44
2019-01-27T11:50:55.040Z,983.45
2019-01-27T11:51:55.055Z,983.46
2019-01-27T11:52:55.071Z,983.41
2019-01-27T11:53:55.087Z,983.43
2019-01-27T11:54:55.102Z,983.44
2019-01-27T11:55:55.118Z,983.41
2019-01-27T11:56:55.134Z,983.46
2019-01-27T11:57:55.154Z,983.46
2019-01-27T11:58:55.170Z,983.49
2019-01-27T11:59:55.182Z,983.48
2019-01-27T12:00:55.200Z,983.49
2019-01-27T12:01:55.219Z,983.5
2019-01-27T12:03:55.246Z,983.4
2019-01-27T12:04:55.262Z,983.35
2019-01-27T12:05:55.279Z,983.33
2019-01-27T12:06:55.294Z,983.29
2019-01-27T12:07:55.310Z,983.33
2019-01-27T12:08:55.326Z,983.38
2019-01-27T12:09:55.342Z,983.31
2019-01-27T12:10:55.358Z,983.36
2019-01-27T12:11:55.374Z,983.3
2019-01-27T12:12:55.390Z,983.32
2019-01-27T12:13:55.406Z,983.26
2019-01-27T12:14:55.425Z,983.23
2019-01-27T12:15:55.438Z,983.22
2019-01-27T12:16:55.456Z,983.22
2019-01-27T12:17:55.469Z,983.19
2019-01-27T12:19:55.501Z,983.25
2019-01-27T12:20:55.517Z,983.25
2019-01-27T12:21:55.533Z,983.23
2019-01-27T12:22:55.548Z,983.24
2019-01-27T12:23:55.565Z,983.25
2019-01-27T12:24:55.579Z,983.22
2019-01-27T12:25:55.596Z,983.2
2019-01-27T12:26:55.662Z,983.25
2019-01-27T12:27:55.628Z,983.21
2019-01-27T12:28:55.644Z,983.22
2019-01-27T12:29:55.660Z,983.23
2019-01-27T12:30:55.679Z,983.26
2019-01-27T12:31:55.694Z,983.3
2019-01-27T12:32:55.708Z,983.24
2019-01-27T12:34:55.742Z,983.24
2019-01-27T12:35:55.755Z,983.25
2019-01-27T12:36:55.772Z,983.21
2019-01-27T12:37:55.788Z,983.22
2019-01-27T12:38:55.803Z,983.21
2019-01-27T12:39:55.819Z,983.2
2019-01-27T12:40:55.835Z,983.15
2019-01-27T12:41:55.851Z,983.18
2019-01-27T12:42:55.866Z,983.15
2019-01-27T12:43:55.882Z,983.11
2019-01-27T12:44:55.899Z,983.12
2019-01-27T12:45:55.914Z,983.15
2019-01-27T12:46:55.929Z,983.16
2019-01-27T12:47:55.945Z,983.14
2019-01-27T12:48:55.962Z,983.12
2019-01-27T12:49:55.978Z,983.13
2019-01-27T12:50:55.993Z,983.09
2019-01-27T12:51:56.010Z,983.03
2019-01-27T12:52:56.025Z,983.08
2019-01-27T12:53:56.040Z,983.09
2019-01-27T12:54:56.058Z,983.02
2019-01-27T12:55:56.073Z,983.03
2019-01-27T12:56:56.089Z,983
2019-01-27T12:57:56.107Z,982.99
2019-01-27T12:58:56.120Z,982.99
2019-01-27T12:59:56.138Z,983.03
2019-01-27T13:00:56.153Z,983.03
2019-01-27T13:01:56.170Z,983
2019-01-27T13:02:56.185Z,982.99
2019-01-27T13:03:56.201Z,982.98
2019-01-27T13:04:56.216Z,982.99
2019-01-27T13:06:56.249Z,982.99
2019-01-27T13:07:56.315Z,982.99
2019-01-27T13:08:56.281Z,982.99
2019-01-27T13:09:56.297Z,982.95
2019-01-27T13:10:56.313Z,982.94
2019-01-27T13:11:56.332Z,982.94
2019-01-27T13:12:56.345Z,982.95